createdAt,value
2023-05-15T00:02:27.721Z,101339.66
2023-05-15T00:04:56.572Z,101338.94
2023-05-15T00:07:26.026Z,101327.53
2023-05-15T00:09:54.849Z,101328.75
2023-05-15T00:12:24.030Z,101321.44
2023-05-15T00:14:53.291Z,101318.03
2023-05-15T00:17:22.675Z,101313.91
2023-05-15T00:19:51.899Z,101303.16
2023-05-15T00:22:21.240Z,101303.16
2023-05-15T00:24:50.649Z,101313.19
2023-05-15T00:27:19.973Z,101311.06
2023-05-15T00:29:48.917Z,101293.50
2023-05-15T00:32:17.796Z,101294.94
2023-05-15T00:34:47.172Z,101300.81
2023-05-15T00:37:16.074Z,101304.22
2023-05-15T00:39:45.090Z,101314.81
2023-05-15T00:42:14.060Z,101325.53
2023-05-15T00:44:42.874Z,101319.44
2023-05-15T00:47:13.110Z,101321.44
2023-05-15T00:49:42.477Z,101321.44
2023-05-15T00:52:11.439Z,101315.34
2023-05-15T00:54:40.431Z,101309.25
2023-05-15T00:57:09.809Z,101315.34
2023-05-15T00:59:38.770Z,101311.19
2023-05-15T01:02:07.748Z,101311.75
2023-05-15T01:04:36.214Z,101302.44
2023-05-15T01:07:04.610Z,101301.19
2023-05-15T01:09:33.347Z,101301.75
2023-05-15T01:12:02.287Z,101294.91
2023-05-15T01:14:31.141Z,101292.78
2023-05-15T01:17:00.093Z,101303.50
2023-05-15T01:19:29.202Z,101299.41
2023-05-15T01:21:58.544Z,101288.69
2023-05-15T01:24:27.537Z,101299.94
2023-05-15T01:26:56.426Z,101295.28
2023-05-15T01:29:25.232Z,101292.41
2023-05-15T01:31:54.036Z,101292.41
2023-05-15T01:34:23.416Z,101285.59
2023-05-15T01:36:52.189Z,101285.59
2023-05-15T01:39:21.021Z,101275.59
2023-05-15T01:41:49.539Z,101276.31
2023-05-15T01:44:21.636Z,101278.81
2023-05-15T01:46:50.617Z,101278.09
2023-05-15T01:49:19.511Z,101278.81
2023-05-15T01:51:48.364Z,101272.00
2023-05-15T01:54:17.145Z,101275.97
2023-05-15T01:56:46.374Z,101265.22
2023-05-15T01:59:15.205Z,101269.13
2023-05-15T02:01:43.575Z,101279.88
2023-05-15T02:04:11.652Z,101271.81
2023-05-15T02:06:40.963Z,101260.91
2023-05-15T02:09:09.101Z,101252.16
2023-05-15T02:11:37.290Z,101255.53
2023-05-15T02:14:06.199Z,101263.56
2023-05-15T02:16:34.717Z,101256.81
2023-05-15T02:19:03.661Z,101248.75
2023-05-15T02:21:33.047Z,101258.03
2023-05-15T02:24:01.740Z,101251.25
2023-05-15T02:26:29.975Z,101249.81
2023-05-15T02:28:58.751Z,101252.50
2023-05-15T02:31:27.701Z,101254.50
2023-05-15T02:33:56.245Z,101249.63
2023-05-15T02:36:24.853Z,101265.03
2023-05-15T02:38:53.260Z,101257.69
2023-05-15T02:41:22.214Z,101272.34
2023-05-15T02:43:50.841Z,101270.94
2023-05-15T02:46:19.784Z,101280.25
2023-05-15T02:48:49.343Z,101273.41
2023-05-15T02:51:18.262Z,101273.41
2023-05-15T02:53:47.145Z,101261.28
2023-05-15T02:56:16.060Z,101272.03
2023-05-15T02:58:44.417Z,101275.94
2023-05-15T03:01:13.686Z,101272.53
2023-05-15T03:03:42.708Z,101274.50
2023-05-15T03:06:11.548Z,101274.50
2023-05-15T03:08:40.839Z,101278.41
2023-05-15T03:11:10.980Z,101273.06
2023-05-15T03:13:39.411Z,101275.72
2023-05-15T03:16:07.573Z,101277.03
2023-05-15T03:18:36.421Z,101274.34
2023-05-15T03:21:05.423Z,101267.50
2023-05-15T03:23:36.360Z,101266.28
2023-05-15T03:26:06.980Z,101264.84
2023-05-15T03:28:35.969Z,101264.84
2023-05-15T03:31:04.547Z,101259.47
2023-05-15T03:33:33.618Z,101263.41
2023-05-15T03:36:03.053Z,101258.03
2023-05-15T03:38:32.391Z,101252.66
2023-05-15T03:41:02.401Z,101258.03
2023-05-15T03:43:33.473Z,101252.66
2023-05-15T03:46:02.450Z,101256.63
2023-05-15T03:48:31.421Z,101253.94
2023-05-15T03:50:59.915Z,101247.31
2023-05-15T03:53:31.760Z,101235.84
2023-05-15T03:56:00.628Z,101241.94
2023-05-15T03:58:29.596Z,101241.94
2023-05-15T04:00:58.882Z,101233.16
2023-05-15T04:03:28.350Z,101229.22
2023-05-15T04:05:57.798Z,101232.63
2023-05-15T04:08:26.673Z,101230.69
2023-05-15T04:10:56.024Z,101228.72
2023-05-15T04:13:25.385Z,101227.25
2023-05-15T04:15:54.330Z,101235.47
2023-05-15T04:18:23.479Z,101230.13
2023-05-15T04:20:51.793Z,101231.56
2023-05-15T04:23:21.081Z,101235.47
2023-05-15T04:25:50.380Z,101242.31
2023-05-15T04:28:19.580Z,101242.31
2023-05-15T04:30:48.858Z,101246.94
2023-05-15T04:33:18.109Z,101243.72
2023-05-15T04:35:47.509Z,101247.66
2023-05-15T04:38:17.045Z,101254.47
2023-05-15T04:40:46.398Z,101254.63
2023-05-15T04:43:15.645Z,101256.66
2023-05-15T04:45:44.867Z,101263.41
2023-05-15T04:48:14.111Z,101258.78
2023-05-15T04:50:43.412Z,101270.22
2023-05-15T04:53:12.270Z,101265.56
2023-05-15T04:55:41.658Z,101272.34
2023-05-15T04:58:10.949Z,101265.56
2023-05-15T05:00:39.764Z,101269.88
2023-05-15T05:03:08.810Z,101267.34
2023-05-15T05:05:37.557Z,101267.72
2023-05-15T05:08:06.136Z,101271.28
2023-05-15T05:10:35.474Z,101274.88
2023-05-15T05:13:04.779Z,101265.56
2023-05-15T05:15:34.124Z,101273.81
2023-05-15T05:18:02.938Z,101284.19
2023-05-15T05:20:31.447Z,101285.28
2023-05-15T05:23:00.232Z,101289.38
2023-05-15T05:25:29.612Z,101296.34
2023-05-15T05:27:58.492Z,101281.69
2023-05-15T05:30:27.473Z,101279.19
2023-05-15T05:32:55.751Z,101283.47
2023-05-15T05:35:24.818Z,101286.31
2023-05-15T05:37:54.255Z,101290.47
2023-05-15T05:40:22.766Z,101288.50
2023-05-15T05:42:51.415Z,101286.00
2023-05-15T05:45:20.342Z,101293.50
2023-05-15T05:47:49.228Z,101293.50
2023-05-15T05:50:18.136Z,101296.34
2023-05-15T05:52:47.471Z,101291.00
2023-05-15T05:55:16.894Z,101304.59
2023-05-15T05:57:46.148Z,101295.25
2023-05-15T06:00:15.558Z,101290.09
2023-05-15T06:02:44.563Z,101288.81
2023-05-15T06:05:13.792Z,101299.19
2023-05-15T06:07:43.241Z,101296.00
2023-05-15T06:10:12.574Z,101290.63
2023-05-15T06:12:41.643Z,101289.53
2023-05-15T06:15:10.166Z,101292.41
2023-05-15T06:17:39.072Z,101287.94
2023-05-15T06:20:08.021Z,101287.38
2023-05-15T06:22:36.595Z,101298.31
2023-05-15T06:25:05.093Z,101292.38
2023-05-15T06:27:33.765Z,101294.72
2023-05-15T06:30:03.204Z,101292.91
2023-05-15T06:32:34.314Z,101296.66
2023-05-15T06:35:03.864Z,101287.72
2023-05-15T06:37:33.395Z,101288.78
2023-05-15T06:40:02.457Z,101293.59
2023-05-15T06:42:31.195Z,101290.53
2023-05-15T06:45:00.487Z,101294.84
2023-05-15T06:47:29.983Z,101305.22
2023-05-15T06:49:58.887Z,101299.47
2023-05-15T06:52:28.258Z,101295.88
2023-05-15T06:54:57.565Z,101290.13
2023-05-15T06:57:26.456Z,101294.59
2023-05-15T06:59:55.086Z,101277.53
2023-05-15T07:02:24.041Z,101277.72
2023-05-15T07:04:53.511Z,101276.63
2023-05-15T07:07:22.895Z,101278.25
2023-05-15T07:09:52.126Z,101277.13
2023-05-15T07:12:20.903Z,101278.94
2023-05-15T07:14:49.808Z,101278.34
2023-05-15T07:17:18.643Z,101279.25
2023-05-15T07:19:47.940Z,101277.44
2023-05-15T07:22:17.330Z,101270.25
2023-05-15T07:24:46.926Z,101282.78
2023-05-15T07:27:15.871Z,101285.25
2023-05-15T07:29:45.166Z,101271.41
2023-05-15T07:32:14.204Z,101286.63
2023-05-15T07:34:43.013Z,101279.06
2023-05-15T07:37:11.702Z,101275.63
2023-05-15T07:39:40.581Z,101270.72
2023-05-15T07:42:09.904Z,101279.28
2023-05-15T07:44:38.798Z,101263.81
2023-05-15T07:47:07.378Z,101265.88
2023-05-15T07:49:36.064Z,101283.00
2023-05-15T07:52:04.851Z,101278.28
2023-05-15T07:54:33.401Z,101275.09
2023-05-15T07:57:02.360Z,101278.13
2023-05-15T07:59:37.001Z,101274.78
2023-05-15T08:02:06.536Z,101275.09
2023-05-15T08:04:35.687Z,101279.41
2023-05-15T08:07:04.647Z,101278.22
2023-05-15T08:09:34.022Z,101281.28
2023-05-15T08:12:03.598Z,101276.44
2023-05-15T08:14:32.529Z,101287.72
2023-05-15T08:17:01.549Z,101282.16
2023-05-15T08:19:30.351Z,101272.28
2023-05-15T08:21:59.550Z,101268.19
2023-05-15T08:24:28.734Z,101269.81
2023-05-15T08:26:57.553Z,101272.13
2023-05-15T08:29:26.361Z,101276.81
2023-05-15T08:31:55.180Z,101270.75
2023-05-15T08:34:24.634Z,101273.31
2023-05-15T08:36:54.066Z,101267.25
2023-05-15T08:39:22.918Z,101272.16
2023-05-15T08:41:51.522Z,101266.09
2023-05-15T08:44:19.761Z,101272.63
2023-05-15T08:46:48.378Z,101276.19
2023-05-15T08:49:18.416Z,101275.34
2023-05-15T08:51:48.751Z,101279.47
2023-05-15T08:54:18.132Z,101274.63
2023-05-15T08:56:47.514Z,101276.22
2023-05-15T08:59:16.322Z,101271.53
2023-05-15T09:01:44.994Z,101267.81
2023-05-15T09:04:13.320Z,101267.09
2023-05-15T09:06:42.227Z,101262.88
2023-05-15T09:09:11.044Z,101268.56
2023-05-15T09:11:40.018Z,101275.66
2023-05-15T09:14:08.768Z,101270.69
2023-05-15T09:16:37.588Z,101271.16
2023-05-15T09:19:06.601Z,101266.41
2023-05-15T09:21:35.253Z,101262.97
2023-05-15T09:24:07.726Z,101256.94
2023-05-15T09:26:37.282Z,101260.44
2023-05-15T09:29:06.242Z,101270.56
2023-05-15T09:31:35.953Z,101263.09
2023-05-15T09:34:05.624Z,101263.88
2023-05-15T09:36:35.250Z,101268.50
2023-05-15T09:39:04.321Z,101272.72
2023-05-15T09:41:33.005Z,101271.50
2023-05-15T09:44:02.516Z,101268.13
2023-05-15T09:46:32.107Z,101270.16
2023-05-15T09:49:01.012Z,101267.06
2023-05-15T09:51:30.441Z,101270.72
2023-05-15T09:53:59.721Z,101272.78
2023-05-15T09:56:28.660Z,101268.13
2023-05-15T09:58:58.099Z,101270.22
2023-05-15T10:01:27.596Z,101263.16
2023-05-15T10:03:56.958Z,101265.94
2023-05-15T10:06:25.714Z,101268.38
2023-05-15T10:08:54.520Z,101274.19
2023-05-15T10:11:23.855Z,101274.91
2023-05-15T10:13:53.148Z,101269.81
2023-05-15T10:16:22.595Z,101270.81
2023-05-15T10:18:51.803Z,101270.66
2023-05-15T10:21:21.260Z,101275.56
2023-05-15T10:23:50.709Z,101282.78
2023-05-15T10:26:20.125Z,101281.44
2023-05-15T10:28:49.053Z,101285.91
2023-05-15T10:31:17.966Z,101287.06
2023-05-15T10:33:47.348Z,101279.97
2023-05-15T10:36:16.467Z,101279.84
2023-05-15T10:38:44.641Z,101290.69
2023-05-15T10:41:17.776Z,101280.44
2023-05-15T10:43:47.523Z,101280.59
2023-05-15T10:46:16.974Z,101283.59
2023-05-15T10:48:46.361Z,101273.19
2023-05-15T10:51:15.855Z,101276.91
2023-05-15T10:53:44.733Z,101272.75
2023-05-15T10:56:13.504Z,101271.94
2023-05-15T10:58:42.897Z,101266.25
2023-05-15T11:01:11.904Z,101264.53
2023-05-15T11:03:48.813Z,101270.06
2023-05-15T11:06:18.776Z,101252.56
2023-05-15T11:08:48.250Z,101261.66
2023-05-15T11:11:17.774Z,101262.66
2023-05-15T11:13:47.073Z,101265.34
2023-05-15T11:16:16.497Z,101266.47
2023-05-15T11:18:45.589Z,101275.41
2023-05-15T11:21:14.246Z,101272.81
2023-05-15T11:23:42.575Z,101267.38
2023-05-15T11:26:11.208Z,101273.75
2023-05-15T11:28:40.388Z,101276.00
2023-05-15T11:31:08.703Z,101274.00
2023-05-15T11:33:37.994Z,101285.31
2023-05-15T11:36:06.958Z,101280.56
2023-05-15T11:38:36.192Z,101276.97
2023-05-15T11:41:05.669Z,101281.13
2023-05-15T11:43:35.041Z,101280.41
2023-05-15T11:46:04.090Z,101275.00
2023-05-15T11:48:33.116Z,101276.16
2023-05-15T11:51:02.625Z,101274.56
2023-05-15T11:53:31.650Z,101264.03
2023-05-15T11:56:00.310Z,101269.81
2023-05-15T11:58:29.687Z,101270.22
2023-05-15T12:00:58.979Z,101273.31
2023-05-15T12:03:27.943Z,101270.63
2023-05-15T12:06:00.114Z,101281.41
2023-05-15T12:08:29.888Z,101275.88
2023-05-15T12:10:58.698Z,101287.63
2023-05-15T12:13:27.604Z,101286.56
2023-05-15T12:15:56.389Z,101274.09
2023-05-15T12:18:25.639Z,101277.34
2023-05-15T12:20:54.403Z,101270.66
2023-05-15T12:23:23.253Z,101283.03
2023-05-15T12:25:52.142Z,101278.75
2023-05-15T12:28:20.630Z,101276.06
2023-05-15T12:30:48.991Z,101273.38
2023-05-15T12:33:17.122Z,101266.53
2023-05-15T12:35:46.015Z,101265.09
2023-05-15T12:38:15.559Z,101271.94
2023-05-15T12:40:44.472Z,101273.38
2023-05-15T12:43:13.362Z,101276.38
2023-05-15T12:45:42.700Z,101275.56
2023-05-15T12:48:12.081Z,101269.22
2023-05-15T12:50:40.721Z,101263.00
2023-05-15T12:53:09.464Z,101271.53
2023-05-15T12:55:38.820Z,101264.94
2023-05-15T12:58:08.223Z,101266.72
2023-05-15T13:00:37.531Z,101252.59
2023-05-15T13:03:06.396Z,101262.31
2023-05-15T13:05:35.306Z,101260.22
2023-05-15T13:08:04.514Z,101256.00
2023-05-15T13:10:33.424Z,101255.84
2023-05-15T13:13:02.722Z,101256.41
2023-05-15T13:15:31.812Z,101260.41
2023-05-15T13:18:00.562Z,101259.06
2023-05-15T13:20:29.550Z,101257.66
2023-05-15T13:22:58.870Z,101260.25
2023-05-15T13:25:28.063Z,101262.72
2023-05-15T13:27:57.533Z,101242.50
2023-05-15T13:30:26.604Z,101245.06
2023-05-15T13:32:56.167Z,101255.63
2023-05-15T13:35:25.311Z,101256.41
2023-05-15T13:37:53.433Z,101254.38
2023-05-15T13:40:22.250Z,101258.63
2023-05-15T13:42:51.637Z,101261.94
2023-05-15T13:45:20.907Z,101264.13
2023-05-15T13:47:49.866Z,101263.91
2023-05-15T13:50:18.819Z,101262.69
2023-05-15T13:52:48.009Z,101257.91
2023-05-15T13:55:16.844Z,101250.22
2023-05-15T13:57:46.149Z,101256.44
2023-05-15T14:00:15.661Z,101251.88
2023-05-15T14:02:45.059Z,101253.38
2023-05-15T14:05:14.321Z,101248.00
2023-05-15T14:07:42.468Z,101237.75
2023-05-15T14:10:11.286Z,101236.44
2023-05-15T14:12:40.524Z,101241.00
2023-05-15T14:15:09.840Z,101249.28
2023-05-15T14:17:42.519Z,101245.97
2023-05-15T14:20:11.417Z,101243.06
2023-05-15T14:22:40.333Z,101244.34
2023-05-15T14:25:09.729Z,101245.13
2023-05-15T14:27:38.532Z,101244.81
2023-05-15T14:30:07.393Z,101253.00
2023-05-15T14:32:36.766Z,101252.41
2023-05-15T14:35:05.850Z,101251.72
2023-05-15T14:37:34.650Z,101259.59
2023-05-15T14:40:03.969Z,101263.56
2023-05-15T14:42:33.177Z,101261.97
2023-05-15T14:45:02.227Z,101264.31
2023-05-15T14:47:30.890Z,101263.16
2023-05-15T14:49:59.596Z,101264.84
2023-05-15T14:52:28.287Z,101264.69
2023-05-15T14:55:08.698Z,101273.91
2023-05-15T14:57:39.759Z,101264.94
2023-05-15T15:00:09.428Z,101268.38
2023-05-15T15:02:39.154Z,101270.34
2023-05-15T15:05:08.265Z,101270.75
2023-05-15T15:07:36.603Z,101271.53
2023-05-15T15:10:05.437Z,101273.50
2023-05-15T15:12:34.153Z,101268.56
2023-05-15T15:15:02.693Z,101276.31
2023-05-15T15:17:31.281Z,101283.63
2023-05-15T15:19:59.845Z,101276.38
2023-05-15T15:22:28.158Z,101281.75
2023-05-15T15:24:59.849Z,101280.34
2023-05-15T15:27:29.830Z,101280.34
2023-05-15T15:29:58.604Z,101288.28
2023-05-15T15:32:27.859Z,101282.41
2023-05-15T15:34:57.241Z,101292.72
2023-05-15T15:37:26.640Z,101294.94
2023-05-15T15:39:56.057Z,101301.09
2023-05-15T15:42:25.374Z,101302.59
2023-05-15T15:44:54.733Z,101297.28
2023-05-15T15:47:24.000Z,101300.91
2023-05-15T15:49:53.261Z,101307.81
2023-05-15T15:52:22.649Z,101307.84
2023-05-15T15:54:52.024Z,101314.34
2023-05-15T15:57:20.832Z,101308.81
2023-05-15T15:59:49.720Z,101320.28
2023-05-15T16:02:19.147Z,101312.59
2023-05-15T16:04:47.740Z,101313.72
2023-05-15T16:07:16.042Z,101317.31
2023-05-15T16:09:45.721Z,101327.59
2023-05-15T16:12:16.283Z,101309.50
2023-05-15T16:14:45.642Z,101321.03
2023-05-15T16:17:14.905Z,101326.06
2023-05-15T16:19:43.721Z,101321.78
2023-05-15T16:22:13.034Z,101321.63
2023-05-15T16:24:42.352Z,101329.34
2023-05-15T16:27:11.624Z,101337.06
2023-05-15T16:29:40.983Z,101329.38
2023-05-15T16:32:10.002Z,101342.34
2023-05-15T16:34:38.872Z,101333.22
2023-05-15T16:37:08.169Z,101340.94
2023-05-15T16:39:37.029Z,101333.78
2023-05-15T16:42:07.906Z,101337.56
2023-05-15T16:44:38.740Z,101341.34
2023-05-15T16:47:08.112Z,101351.94
2023-05-15T16:49:37.351Z,101344.94
2023-05-15T16:52:06.591Z,101342.06
2023-05-15T16:54:35.479Z,101339.94
2023-05-15T16:57:05.018Z,101346.03
2023-05-15T16:59:34.307Z,101351.41
2023-05-15T17:02:03.736Z,101341.91
2023-05-15T17:04:33.191Z,101345.31
2023-05-15T17:07:02.520Z,101344.59
2023-05-15T17:09:31.942Z,101350.69
2023-05-15T17:12:01.386Z,101347.28
2023-05-15T17:14:29.972Z,101359.28
2023-05-15T17:16:58.768Z,101352.31
2023-05-15T17:19:28.133Z,101356.59
2023-05-15T17:21:56.924Z,101351.41
2023-05-15T17:24:27.228Z,101348.16
2023-05-15T17:27:02.165Z,101350.31
2023-05-15T17:29:30.954Z,101363.75
2023-05-15T17:32:00.245Z,101359.66
2023-05-15T17:34:29.613Z,101361.97
2023-05-15T17:36:58.146Z,101355.00
2023-05-15T17:39:26.814Z,101362.19
2023-05-15T17:41:56.217Z,101364.00
2023-05-15T17:44:25.665Z,101367.75
2023-05-15T17:46:54.984Z,101366.34
2023-05-15T17:49:24.368Z,101369.03
2023-05-15T17:51:53.840Z,101372.94
2023-05-15T17:54:22.788Z,101370.09
2023-05-15T17:56:51.696Z,101374.03
2023-05-15T17:59:20.852Z,101384.78
2023-05-15T18:01:49.161Z,101379.41
2023-05-15T18:04:18.508Z,101378.69
2023-05-15T18:06:47.856Z,101386.22
2023-05-15T18:09:17.270Z,101390.16
2023-05-15T18:11:45.906Z,101381.22
2023-05-15T18:14:14.330Z,101389.66
2023-05-15T18:16:42.716Z,101381.22
2023-05-15T18:19:11.515Z,101394.50
2023-05-15T18:21:40.808Z,101394.84
2023-05-15T18:24:09.721Z,101396.63
2023-05-15T18:26:39.025Z,101397.72
2023-05-15T18:29:12.661Z,101400.22
2023-05-15T18:31:42.062Z,101406.66
2023-05-15T18:34:11.118Z,101402.38
2023-05-15T18:36:39.978Z,101399.50
2023-05-15T18:39:08.672Z,101400.03
2023-05-15T18:41:37.300Z,101412.78
2023-05-15T18:44:06.087Z,101407.22
2023-05-15T18:46:35.406Z,101415.28
2023-05-15T18:49:04.228Z,101417.78
2023-05-15T18:51:33.076Z,101427.06
2023-05-15T18:54:02.508Z,101421.53
2023-05-15T18:56:31.833Z,101421.34
2023-05-15T18:59:01.242Z,101421.91
2023-05-15T19:01:30.677Z,101427.81
2023-05-15T19:04:00.129Z,101418.13
2023-05-15T19:06:29.514Z,101434.06
2023-05-15T19:08:58.765Z,101420.63
2023-05-15T19:11:28.082Z,101428.50
2023-05-15T19:13:57.460Z,101431.75
2023-05-15T19:16:26.373Z,101436.38
2023-05-15T19:18:55.782Z,101440.31
2023-05-15T19:21:24.564Z,101432.06
2023-05-15T19:23:53.723Z,101438.53
2023-05-15T19:26:22.561Z,101437.06
2023-05-15T19:28:55.884Z,101439.59
2023-05-15T19:31:31.484Z,101442.09
2023-05-15T19:34:00.723Z,101436.53
2023-05-15T19:36:29.402Z,101437.81
2023-05-15T19:38:58.655Z,101441.53
2023-05-15T19:41:27.542Z,101444.75
2023-05-15T19:43:57.025Z,101442.44
2023-05-15T19:46:26.236Z,101449.06
2023-05-15T19:48:55.602Z,101451.53
2023-05-15T19:51:24.982Z,101448.84
2023-05-15T19:53:54.314Z,101449.94
2023-05-15T19:56:23.721Z,101447.09
2023-05-15T19:58:52.957Z,101449.56
2023-05-15T20:01:22.402Z,101448.84
2023-05-15T20:03:51.806Z,101451.84
2023-05-15T20:06:20.664Z,101460.84
2023-05-15T20:08:49.513Z,101455.25
2023-05-15T20:11:18.928Z,101460.63
2023-05-15T20:13:47.920Z,101486.75
2023-05-15T20:16:16.066Z,101477.28
2023-05-15T20:18:45.267Z,101494.63
2023-05-15T20:21:14.612Z,101493.19
2023-05-15T20:23:43.915Z,101502.47
2023-05-15T20:26:13.264Z,101506.44
2023-05-15T20:28:44.432Z,101515.72
2023-05-15T20:31:14.590Z,101514.28
2023-05-15T20:33:43.952Z,101531.44
2023-05-15T20:36:13.182Z,101534.69
2023-05-15T20:38:42.512Z,101535.03
2023-05-15T20:41:11.976Z,101544.09
2023-05-15T20:43:41.286Z,101537.34
2023-05-15T20:46:10.707Z,101542.50
2023-05-15T20:48:39.733Z,101539.63
2023-05-15T20:51:08.724Z,101547.50
2023-05-15T20:53:37.016Z,101551.59
2023-05-15T20:56:05.923Z,101562.16
2023-05-15T20:58:35.270Z,101552.50
2023-05-15T21:01:04.582Z,101561.03
2023-05-15T21:03:33.975Z,101559.59
2023-05-15T21:06:03.226Z,101557.44
2023-05-15T21:08:32.570Z,101566.75
2023-05-15T21:11:01.070Z,101571.94
2023-05-15T21:13:29.727Z,101574.59
2023-05-15T21:15:58.493Z,101581.19
2023-05-15T21:18:27.756Z,101579.03
2023-05-15T21:20:56.583Z,101580.31
2023-05-15T21:23:25.877Z,101582.78
2023-05-15T21:25:54.650Z,101582.06
2023-05-15T21:28:23.388Z,101586.00
2023-05-15T21:30:52.155Z,101586.00
2023-05-15T21:33:21.074Z,101579.00
2023-05-15T21:35:50.372Z,101596.34
2023-05-15T21:38:18.839Z,101582.72
2023-05-15T21:40:47.430Z,101592.03
2023-05-15T21:43:16.575Z,101592.03
2023-05-15T21:45:45.757Z,101606.69
2023-05-15T21:48:15.068Z,101604.50
2023-05-15T21:50:44.426Z,101603.78
2023-05-15T21:53:13.341Z,101615.78
2023-05-15T21:55:41.990Z,101600.91
2023-05-15T21:58:11.325Z,101604.84
2023-05-15T22:00:40.662Z,101608.78
2023-05-15T22:03:09.595Z,101601.25
2023-05-15T22:05:39.035Z,101614.47
2023-05-15T22:08:08.416Z,101608.38
2023-05-15T22:10:37.777Z,101612.31
2023-05-15T22:13:06.779Z,101620.16
2023-05-15T22:15:35.476Z,101624.09
2023-05-15T22:18:04.873Z,101618.72
2023-05-15T22:20:34.378Z,101616.56
2023-05-15T22:23:03.628Z,101625.81
2023-05-15T22:25:32.455Z,101622.97
2023-05-15T22:28:01.682Z,101626.38
2023-05-15T22:30:30.272Z,101621.53
2023-05-15T22:32:58.995Z,101630.09
2023-05-15T22:35:28.217Z,101629.38
2023-05-15T22:37:57.392Z,101632.56
2023-05-15T22:40:26.861Z,101629.88
2023-05-15T22:42:56.011Z,101633.84
2023-05-15T22:45:25.399Z,101627.19
2023-05-15T22:47:54.751Z,101631.16
2023-05-15T22:50:24.463Z,101629.00
2023-05-15T22:52:53.473Z,101640.41
2023-05-15T22:55:22.237Z,101644.34
2023-05-15T22:57:51.421Z,101650.94
2023-05-15T23:00:19.906Z,101641.47
2023-05-15T23:02:48.563Z,101645.38
2023-05-15T23:05:17.482Z,101652.19
2023-05-15T23:07:46.858Z,101652.00
2023-05-15T23:10:16.092Z,101650.75
2023-05-15T23:12:45.317Z,101653.25
2023-05-15T23:15:14.395Z,101653.25
2023-05-15T23:17:42.652Z,101659.84
2023-05-15T23:20:11.989Z,101655.69
2023-05-15T23:22:41.256Z,101661.59
2023-05-15T23:25:10.498Z,101663.56
2023-05-15T23:27:39.640Z,101668.91
2023-05-15T23:30:08.903Z,101666.25
2023-05-15T23:32:38.124Z,101661.41
2023-05-15T23:35:07.484Z,101674.06
2023-05-15T23:37:36.700Z,101669.94
2023-05-15T23:40:05.883Z,101675.31
2023-05-15T23:42:35.077Z,101674.63
2023-05-15T23:45:03.806Z,101680.69
2023-05-15T23:47:33.125Z,101683.88
2023-05-15T23:50:02.469Z,101687.06
2023-05-15T23:52:31.608Z,101687.06
2023-05-15T23:55:00.882Z,101687.81
2023-05-15T23:57:30.175Z,101700.47
2023-05-15T23:59:59.089Z,101692.44
